sensor_id;sensor_type;location;lat;lon;timestamp;P1;durP1;ratioP1;P2;durP2;ratioP2
28926;SDS011;16038;47.692;9.400;2024-03-22T00:01:40;9.65;;;5.43;;
28926;SDS011;16038;47.692;9.400;2024-03-22T00:04:05;7.30;;;5.30;;
28926;SDS011;16038;47.692;9.400;2024-03-22T00:06:30;10.50;;;5.13;;
28926;SDS011;16038;47.692;9.400;2024-03-22T00:08:56;9.82;;;4.90;;
28926;SDS011;16038;47.692;9.400;2024-03-22T00:11:21;7.20;;;4.72;;
28926;SDS011;16038;47.692;9.400;2024-03-22T00:13:47;9.32;;;5.38;;
28926;SDS011;16038;47.692;9.400;2024-03-22T00:16:12;10.43;;;5.00;;
28926;SDS011;16038;47.692;9.400;2024-03-22T00:18:37;8.90;;;5.45;;
28926;SDS011;16038;47.692;9.400;2024-03-22T00:21:03;9.77;;;5.25;;
28926;SDS011;16038;47.692;9.400;2024-03-22T00:23:28;12.73;;;5.22;;
28926;SDS011;16038;47.692;9.400;2024-03-22T00:25:55;7.13;;;4.78;;
28926;SDS011;16038;47.692;9.400;2024-03-22T00:28:21;7.97;;;5.30;;
28926;SDS011;16038;47.692;9.400;2024-03-22T00:30:47;9.38;;;5.35;;
28926;SDS011;16038;47.692;9.400;2024-03-22T00:33:12;12.07;;;5.97;;
28926;SDS011;16038;47.692;9.400;2024-03-22T00:35:37;10.43;;;5.60;;
28926;SDS011;16038;47.692;9.400;2024-03-22T00:38:03;11.10;;;5.55;;
28926;SDS011;16038;47.692;9.400;2024-03-22T00:40:28;7.90;;;5.63;;
28926;SDS011;16038;47.692;9.400;2024-03-22T00:42:54;8.43;;;5.00;;
28926;SDS011;16038;47.692;9.400;2024-03-22T00:45:19;8.57;;;5.32;;
28926;SDS011;16038;47.692;9.400;2024-03-22T00:47:44;10.32;;;5.22;;
28926;SDS011;16038;47.692;9.400;2024-03-22T00:50:10;6.97;;;4.97;;
28926;SDS011;16038;47.692;9.400;2024-03-22T00:52:35;10.00;;;4.80;;
28926;SDS011;16038;47.692;9.400;2024-03-22T00:55:00;8.98;;;6.03;;
28926;SDS011;16038;47.692;9.400;2024-03-22T00:57:26;8.52;;;5.05;;
28926;SDS011;16038;47.692;9.400;2024-03-22T00:59:51;8.63;;;5.13;;
28926;SDS011;16038;47.692;9.400;2024-03-22T01:02:17;13.88;;;6.03;;
28926;SDS011;16038;47.692;9.400;2024-03-22T01:04:42;8.38;;;5.68;;
28926;SDS011;16038;47.692;9.400;2024-03-22T01:07:07;10.60;;;5.60;;
28926;SDS011;16038;47.692;9.400;2024-03-22T01:09:33;9.57;;;5.95;;
28926;SDS011;16038;47.692;9.400;2024-03-22T01:11:58;8.52;;;4.78;;
28926;SDS011;16038;47.692;9.400;2024-03-22T01:14:23;8.73;;;5.82;;
28926;SDS011;16038;47.692;9.400;2024-03-22T01:16:49;10.00;;;5.70;;
28926;SDS011;16038;47.692;9.400;2024-03-22T01:19:14;9.40;;;5.50;;
28926;SDS011;16038;47.692;9.400;2024-03-22T01:21:39;10.45;;;5.38;;
28926;SDS011;16038;47.692;9.400;2024-03-22T01:24:05;11.18;;;5.30;;
28926;SDS011;16038;47.692;9.400;2024-03-22T01:26:30;9.10;;;5.25;;
28926;SDS011;16038;47.692;9.400;2024-03-22T01:28:56;12.07;;;5.43;;
28926;SDS011;16038;47.692;9.400;2024-03-22T01:31:21;8.00;;;4.88;;
28926;SDS011;16038;47.692;9.400;2024-03-22T01:33:47;9.68;;;5.45;;
28926;SDS011;16038;47.692;9.400;2024-03-22T01:36:12;10.25;;;6.15;;
28926;SDS011;16038;47.692;9.400;2024-03-22T01:38:38;13.32;;;5.90;;
28926;SDS011;16038;47.692;9.400;2024-03-22T01:41:03;8.63;;;5.70;;
28926;SDS011;16038;47.692;9.400;2024-03-22T01:43:29;8.50;;;6.00;;
28926;SDS011;16038;47.692;9.400;2024-03-22T01:45:54;10.88;;;6.78;;
28926;SDS011;16038;47.692;9.400;2024-03-22T01:48:19;9.48;;;6.13;;
28926;SDS011;16038;47.692;9.400;2024-03-22T01:50:45;7.60;;;5.72;;
28926;SDS011;16038;47.692;9.400;2024-03-22T01:53:11;11.15;;;5.93;;
28926;SDS011;16038;47.692;9.400;2024-03-22T01:55:37;6.55;;;4.93;;
28926;SDS011;16038;47.692;9.400;2024-03-22T01:58:02;13.32;;;5.50;;
28926;SDS011;16038;47.692;9.400;2024-03-22T02:00:29;6.03;;;5.00;;
28926;SDS011;16038;47.692;9.400;2024-03-22T02:02:55;5.60;;;4.85;;
28926;SDS011;16038;47.692;9.400;2024-03-22T02:05:21;11.57;;;5.43;;
28926;SDS011;16038;47.692;9.400;2024-03-22T02:07:47;12.13;;;5.30;;
28926;SDS011;16038;47.692;9.400;2024-03-22T02:10:13;7.00;;;4.97;;
28926;SDS011;16038;47.692;9.400;2024-03-22T02:12:39;8.95;;;5.38;;
28926;SDS011;16038;47.692;9.400;2024-03-22T02:15:05;8.57;;;5.47;;
28926;SDS011;16038;47.692;9.400;2024-03-22T02:17:32;8.80;;;5.28;;
28926;SDS011;16038;47.692;9.400;2024-03-22T02:19:58;7.85;;;5.55;;
28926;SDS011;16038;47.692;9.400;2024-03-22T02:22:24;8.50;;;5.18;;
28926;SDS011;16038;47.692;9.400;2024-03-22T02:24:51;12.43;;;5.28;;
28926;SDS011;16038;47.692;9.400;2024-03-22T02:27:16;9.48;;;5.13;;
28926;SDS011;16038;47.692;9.400;2024-03-22T02:29:41;7.35;;;6.20;;
28926;SDS011;16038;47.692;9.400;2024-03-22T02:32:07;7.18;;;5.18;;
28926;SDS011;16038;47.692;9.400;2024-03-22T02:34:32;9.20;;;5.38;;
28926;SDS011;16038;47.692;9.400;2024-03-22T02:36:58;10.23;;;5.45;;
28926;SDS011;16038;47.692;9.400;2024-03-22T02:39:23;8.48;;;5.60;;
28926;SDS011;16038;47.692;9.400;2024-03-22T02:41:50;6.10;;;5.13;;
28926;SDS011;16038;47.692;9.400;2024-03-22T02:44:16;7.72;;;5.50;;
28926;SDS011;16038;47.692;9.400;2024-03-22T02:46:41;7.05;;;5.53;;
28926;SDS011;16038;47.692;9.400;2024-03-22T02:49:07;9.68;;;5.70;;
28926;SDS011;16038;47.692;9.400;2024-03-22T02:51:33;7.38;;;5.70;;
28926;SDS011;16038;47.692;9.400;2024-03-22T02:53:58;11.27;;;6.93;;
28926;SDS011;16038;47.692;9.400;2024-03-22T02:56:24;10.40;;;6.80;;
28926;SDS011;16038;47.692;9.400;2024-03-22T02:58:50;12.98;;;7.13;;
28926;SDS011;16038;47.692;9.400;2024-03-22T03:01:15;15.60;;;7.75;;
28926;SDS011;16038;47.692;9.400;2024-03-22T03:03:41;18.38;;;9.60;;
28926;SDS011;16038;47.692;9.400;2024-03-22T03:06:07;11.85;;;7.55;;
28926;SDS011;16038;47.692;9.400;2024-03-22T03:08:33;12.85;;;7.25;;
28926;SDS011;16038;47.692;9.400;2024-03-22T03:10:59;10.98;;;7.47;;
28926;SDS011;16038;47.692;9.400;2024-03-22T03:13:24;9.30;;;6.53;;
28926;SDS011;16038;47.692;9.400;2024-03-22T03:15:51;10.25;;;6.25;;
28926;SDS011;16038;47.692;9.400;2024-03-22T03:18:16;9.40;;;6.47;;
28926;SDS011;16038;47.692;9.400;2024-03-22T03:20:41;9.43;;;6.38;;
28926;SDS011;16038;47.692;9.400;2024-03-22T03:23:07;8.18;;;6.25;;
28926;SDS011;16038;47.692;9.400;2024-03-22T03:25:33;6.63;;;5.55;;
28926;SDS011;16038;47.692;9.400;2024-03-22T03:27:58;9.68;;;5.90;;
28926;SDS011;16038;47.692;9.400;2024-03-22T03:30:24;8.48;;;5.75;;
28926;SDS011;16038;47.692;9.400;2024-03-22T03:32:49;8.38;;;5.85;;
28926;SDS011;16038;47.692;9.400;2024-03-22T03:35:14;7.32;;;5.85;;
28926;SDS011;16038;47.692;9.400;2024-03-22T03:37:40;7.55;;;5.63;;
28926;SDS011;16038;47.692;9.400;2024-03-22T03:40:06;11.00;;;5.35;;
28926;SDS011;16038;47.692;9.400;2024-03-22T03:42:31;7.65;;;5.20;;
28926;SDS011;16038;47.692;9.400;2024-03-22T03:44:57;8.68;;;5.32;;
28926;SDS011;16038;47.692;9.400;2024-03-22T03:47:22;7.20;;;5.07;;
28926;SDS011;16038;47.692;9.400;2024-03-22T03:49:48;10.27;;;5.28;;
28926;SDS011;16038;47.692;9.400;2024-03-22T03:52:13;6.55;;;5.07;;
28926;SDS011;16038;47.692;9.400;2024-03-22T03:54:39;8.80;;;4.90;;
28926;SDS011;16038;47.692;9.400;2024-03-22T03:57:04;12.07;;;5.53;;
28926;SDS011;16038;47.692;9.400;2024-03-22T03:59:30;9.85;;;6.13;;
28926;SDS011;16038;47.692;9.400;2024-03-22T04:01:55;9.95;;;5.20;;
28926;SDS011;16038;47.692;9.400;2024-03-22T04:04:20;7.25;;;4.90;;
28926;SDS011;16038;47.692;9.400;2024-03-22T04:06:46;15.23;;;9.38;;
28926;SDS011;16038;47.692;9.400;2024-03-22T04:09:12;10.95;;;7.32;;
28926;SDS011;16038;47.692;9.400;2024-03-22T04:11:37;14.50;;;8.57;;
28926;SDS011;16038;47.692;9.400;2024-03-22T04:14:05;11.63;;;7.78;;
28926;SDS011;16038;47.692;9.400;2024-03-22T04:16:31;9.20;;;6.28;;
28926;SDS011;16038;47.692;9.400;2024-03-22T04:18:56;8.07;;;5.63;;
28926;SDS011;16038;47.692;9.400;2024-03-22T04:21:22;9.73;;;5.97;;
28926;SDS011;16038;47.692;9.400;2024-03-22T04:23:48;6.15;;;5.07;;
28926;SDS011;16038;47.692;9.400;2024-03-22T04:26:13;7.18;;;5.32;;
28926;SDS011;16038;47.692;9.400;2024-03-22T04:28:39;13.00;;;5.75;;
28926;SDS011;16038;47.692;9.400;2024-03-22T04:31:06;8.25;;;5.18;;
28926;SDS011;16038;47.692;9.400;2024-03-22T04:33:33;9.02;;;5.65;;
28926;SDS011;16038;47.692;9.400;2024-03-22T04:36:00;9.45;;;5.43;;
28926;SDS011;16038;47.692;9.400;2024-03-22T04:38:26;10.30;;;5.55;;
28926;SDS011;16038;47.692;9.400;2024-03-22T04:40:52;9.13;;;5.22;;
28926;SDS011;16038;47.692;9.400;2024-03-22T04:43:19;13.55;;;6.50;;
28926;SDS011;16038;47.692;9.400;2024-03-22T04:45:45;9.90;;;6.38;;
28926;SDS011;16038;47.692;9.400;2024-03-22T04:48:12;13.90;;;5.72;;
28926;SDS011;16038;47.692;9.400;2024-03-22T04:50:39;9.68;;;5.95;;
28926;SDS011;16038;47.692;9.400;2024-03-22T04:53:04;7.90;;;4.95;;
28926;SDS011;16038;47.692;9.400;2024-03-22T04:55:30;12.45;;;5.63;;
28926;SDS011;16038;47.692;9.400;2024-03-22T04:57:56;15.35;;;7.80;;
28926;SDS011;16038;47.692;9.400;2024-03-22T05:00:21;11.32;;;7.68;;
28926;SDS011;16038;47.692;9.400;2024-03-22T05:02:47;9.10;;;5.55;;
28926;SDS011;16038;47.692;9.400;2024-03-22T05:05:12;8.38;;;5.57;;
28926;SDS011;16038;47.692;9.400;2024-03-22T05:07:38;8.45;;;5.60;;
28926;SDS011;16038;47.692;9.400;2024-03-22T05:10:03;6.43;;;5.18;;
28926;SDS011;16038;47.692;9.400;2024-03-22T05:12:29;9.70;;;5.20;;
28926;SDS011;16038;47.692;9.400;2024-03-22T05:14:55;11.73;;;6.25;;
28926;SDS011;16038;47.692;9.400;2024-03-22T05:17:20;13.65;;;7.07;;
28926;SDS011;16038;47.692;9.400;2024-03-22T05:19:46;15.48;;;6.18;;
28926;SDS011;16038;47.692;9.400;2024-03-22T05:22:12;10.57;;;7.00;;
28926;SDS011;16038;47.692;9.400;2024-03-22T05:24:37;12.57;;;6.55;;
28926;SDS011;16038;47.692;9.400;2024-03-22T05:27:03;14.73;;;8.02;;
28926;SDS011;16038;47.692;9.400;2024-03-22T05:29:28;14.43;;;7.38;;
28926;SDS011;16038;47.692;9.400;2024-03-22T05:31:53;14.10;;;7.05;;
28926;SDS011;16038;47.692;9.400;2024-03-22T05:34:19;10.48;;;6.10;;
28926;SDS011;16038;47.692;9.400;2024-03-22T05:36:47;13.98;;;6.63;;
28926;SDS011;16038;47.692;9.400;2024-03-22T05:39:13;14.20;;;7.18;;
28926;SDS011;16038;47.692;9.400;2024-03-22T05:41:39;9.48;;;6.72;;
28926;SDS011;16038;47.692;9.400;2024-03-22T05:44:05;16.50;;;6.97;;
28926;SDS011;16038;47.692;9.400;2024-03-22T05:46:30;11.68;;;6.15;;
28926;SDS011;16038;47.692;9.400;2024-03-22T05:48:57;9.55;;;5.45;;
28926;SDS011;16038;47.692;9.400;2024-03-22T05:51:23;7.22;;;5.03;;
28926;SDS011;16038;47.692;9.400;2024-03-22T05:53:49;10.10;;;5.63;;
28926;SDS011;16038;47.692;9.400;2024-03-22T05:56:15;6.90;;;4.90;;
28926;SDS011;16038;47.692;9.400;2024-03-22T05:58:40;8.38;;;4.80;;
28926;SDS011;16038;47.692;9.400;2024-03-22T06:01:05;7.68;;;4.68;;
28926;SDS011;16038;47.692;9.400;2024-03-22T06:03:31;8.57;;;4.90;;
28926;SDS011;16038;47.692;9.400;2024-03-22T06:05:57;7.10;;;4.65;;
28926;SDS011;16038;47.692;9.400;2024-03-22T06:08:25;7.05;;;4.45;;
28926;SDS011;16038;47.692;9.400;2024-03-22T06:10:54;6.10;;;4.65;;
28926;SDS011;16038;47.692;9.400;2024-03-22T06:13:21;10.05;;;4.30;;
28926;SDS011;16038;47.692;9.400;2024-03-22T06:15:48;6.80;;;4.35;;
28926;SDS011;16038;47.692;9.400;2024-03-22T06:18:14;6.97;;;4.30;;
28926;SDS011;16038;47.692;9.400;2024-03-22T06:20:40;5.95;;;4.30;;
28926;SDS011;16038;47.692;9.400;2024-03-22T06:23:07;9.60;;;3.50;;
28926;SDS011;16038;47.692;9.400;2024-03-22T06:25:33;5.82;;;3.13;;
28926;SDS011;16038;47.692;9.400;2024-03-22T06:27:58;7.63;;;3.97;;
28926;SDS011;16038;47.692;9.400;2024-03-22T06:30:23;8.63;;;3.80;;
28926;SDS011;16038;47.692;9.400;2024-03-22T06:32:49;11.18;;;4.10;;
28926;SDS011;16038;47.692;9.400;2024-03-22T06:35:14;11.32;;;4.40;;
28926;SDS011;16038;47.692;9.400;2024-03-22T06:37:40;9.35;;;4.13;;
28926;SDS011;16038;47.692;9.400;2024-03-22T06:40:06;5.70;;;3.70;;
28926;SDS011;16038;47.692;9.400;2024-03-22T06:42:35;26.20;;;5.30;;
28926;SDS011;16038;47.692;9.400;2024-03-22T06:45:00;8.45;;;3.47;;
28926;SDS011;16038;47.692;9.400;2024-03-22T06:47:27;9.68;;;3.58;;
28926;SDS011;16038;47.692;9.400;2024-03-22T06:49:52;7.50;;;3.80;;
28926;SDS011;16038;47.692;9.400;2024-03-22T06:52:18;8.63;;;4.40;;
28926;SDS011;16038;47.692;9.400;2024-03-22T06:54:44;10.30;;;4.82;;
28926;SDS011;16038;47.692;9.400;2024-03-22T06:57:09;12.48;;;6.68;;
28926;SDS011;16038;47.692;9.400;2024-03-22T06:59:35;8.77;;;6.65;;
28926;SDS011;16038;47.692;9.400;2024-03-22T07:02:01;8.93;;;5.65;;
28926;SDS011;16038;47.692;9.400;2024-03-22T07:04:26;12.50;;;6.90;;
28926;SDS011;16038;47.692;9.400;2024-03-22T07:06:52;12.18;;;10.15;;
28926;SDS011;16038;47.692;9.400;2024-03-22T07:09:17;17.25;;;10.65;;
28926;SDS011;16038;47.692;9.400;2024-03-22T07:11:43;9.30;;;5.90;;
28926;SDS011;16038;47.692;9.400;2024-03-22T07:14:08;14.52;;;7.05;;
28926;SDS011;16038;47.692;9.400;2024-03-22T07:16:34;13.88;;;8.30;;
28926;SDS011;16038;47.692;9.400;2024-03-22T07:18:59;14.63;;;8.15;;
28926;SDS011;16038;47.692;9.400;2024-03-22T07:21:25;11.27;;;7.72;;
28926;SDS011;16038;47.692;9.400;2024-03-22T07:23:50;17.65;;;12.30;;
28926;SDS011;16038;47.692;9.400;2024-03-22T07:26:15;11.40;;;8.43;;
28926;SDS011;16038;47.692;9.400;2024-03-22T07:28:41;15.02;;;11.10;;
28926;SDS011;16038;47.692;9.400;2024-03-22T07:31:06;16.65;;;11.95;;
28926;SDS011;16038;47.692;9.400;2024-03-22T07:33:31;14.90;;;7.63;;
28926;SDS011;16038;47.692;9.400;2024-03-22T07:36:01;17.10;;;6.15;;
28926;SDS011;16038;47.692;9.400;2024-03-22T07:38:27;12.98;;;4.70;;
28926;SDS011;16038;47.692;9.400;2024-03-22T07:40:52;11.50;;;4.53;;
28926;SDS011;16038;47.692;9.400;2024-03-22T07:43:18;11.98;;;4.55;;
28926;SDS011;16038;47.692;9.400;2024-03-22T07:45:43;6.03;;;3.92;;
28926;SDS011;16038;47.692;9.400;2024-03-22T07:48:08;5.72;;;3.88;;
28926;SDS011;16038;47.692;9.400;2024-03-22T07:50:35;5.88;;;3.40;;
28926;SDS011;16038;47.692;9.400;2024-03-22T07:53:00;7.90;;;3.38;;
28926;SDS011;16038;47.692;9.400;2024-03-22T07:55:26;7.95;;;3.60;;
28926;SDS011;16038;47.692;9.400;2024-03-22T07:57:51;7.65;;;3.53;;
28926;SDS011;16038;47.692;9.400;2024-03-22T08:00:17;9.18;;;3.85;;
28926;SDS011;16038;47.692;9.400;2024-03-22T08:02:42;8.02;;;3.60;;
28926;SDS011;16038;47.692;9.400;2024-03-22T08:05:08;10.90;;;4.68;;
28926;SDS011;16038;47.692;9.400;2024-03-22T08:07:34;10.18;;;4.18;;
28926;SDS011;16038;47.692;9.400;2024-03-22T08:09:59;10.40;;;4.55;;
28926;SDS011;16038;47.692;9.400;2024-03-22T08:12:27;8.40;;;3.55;;
28926;SDS011;16038;47.692;9.400;2024-03-22T08:14:53;13.25;;;3.95;;
28926;SDS011;16038;47.692;9.400;2024-03-22T08:17:18;8.70;;;3.70;;
28926;SDS011;16038;47.692;9.400;2024-03-22T08:19:44;5.97;;;3.83;;
28926;SDS011;16038;47.692;9.400;2024-03-22T08:22:09;6.53;;;3.83;;
28926;SDS011;16038;47.692;9.400;2024-03-22T08:24:35;10.20;;;4.13;;
28926;SDS011;16038;47.692;9.400;2024-03-22T08:27:01;10.25;;;5.22;;
28926;SDS011;16038;47.692;9.400;2024-03-22T08:29:26;15.63;;;4.78;;
28926;SDS011;16038;47.692;9.400;2024-03-22T08:31:52;11.85;;;4.57;;
28926;SDS011;16038;47.692;9.400;2024-03-22T08:34:18;7.72;;;4.20;;
28926;SDS011;16038;47.692;9.400;2024-03-22T08:36:43;6.43;;;4.20;;
28926;SDS011;16038;47.692;9.400;2024-03-22T08:39:09;10.98;;;4.70;;
28926;SDS011;16038;47.692;9.400;2024-03-22T08:41:36;8.63;;;4.50;;
28926;SDS011;16038;47.692;9.400;2024-03-22T08:44:02;9.13;;;4.45;;
28926;SDS011;16038;47.692;9.400;2024-03-22T08:46:27;8.15;;;4.00;;
28926;SDS011;16038;47.692;9.400;2024-03-22T08:48:53;9.52;;;4.35;;
28926;SDS011;16038;47.692;9.400;2024-03-22T08:51:19;7.00;;;4.55;;
28926;SDS011;16038;47.692;9.400;2024-03-22T08:53:46;9.52;;;4.68;;
28926;SDS011;16038;47.692;9.400;2024-03-22T08:56:11;8.95;;;4.57;;
28926;SDS011;16038;47.692;9.400;2024-03-22T08:58:36;7.95;;;3.88;;
28926;SDS011;16038;47.692;9.400;2024-03-22T09:01:02;11.27;;;4.15;;
28926;SDS011;16038;47.692;9.400;2024-03-22T09:03:27;7.00;;;4.35;;
28926;SDS011;16038;47.692;9.400;2024-03-22T09:05:53;9.52;;;4.90;;
28926;SDS011;16038;47.692;9.400;2024-03-22T09:08:19;8.63;;;4.20;;
28926;SDS011;16038;47.692;9.400;2024-03-22T09:10:46;8.40;;;4.57;;
28926;SDS011;16038;47.692;9.400;2024-03-22T09:13:12;13.93;;;5.57;;
28926;SDS011;16038;47.692;9.400;2024-03-22T09:15:38;9.40;;;4.97;;
28926;SDS011;16038;47.692;9.400;2024-03-22T09:18:04;13.25;;;5.45;;
28926;SDS011;16038;47.692;9.400;2024-03-22T09:20:29;9.15;;;4.30;;
28926;SDS011;16038;47.692;9.400;2024-03-22T09:22:55;13.77;;;4.72;;
28926;SDS011;16038;47.692;9.400;2024-03-22T09:25:20;6.65;;;4.05;;
28926;SDS011;16038;47.692;9.400;2024-03-22T09:27:46;11.88;;;5.05;;
28926;SDS011;16038;47.692;9.400;2024-03-22T09:30:11;7.65;;;4.20;;
28926;SDS011;16038;47.692;9.400;2024-03-22T09:32:37;6.85;;;4.38;;
28926;SDS011;16038;47.692;9.400;2024-03-22T09:35:03;12.20;;;4.35;;
28926;SDS011;16038;47.692;9.400;2024-03-22T09:37:29;9.98;;;4.00;;
28926;SDS011;16038;47.692;9.400;2024-03-22T09:39:54;9.68;;;3.50;;
28926;SDS011;16038;47.692;9.400;2024-03-22T09:42:19;9.77;;;4.10;;
28926;SDS011;16038;47.692;9.400;2024-03-22T09:44:48;9.40;;;4.82;;
28926;SDS011;16038;47.692;9.400;2024-03-22T09:47:15;8.50;;;3.85;;
28926;SDS011;16038;47.692;9.400;2024-03-22T09:49:42;8.43;;;4.38;;
28926;SDS011;16038;47.692;9.400;2024-03-22T09:52:11;9.38;;;4.80;;
28926;SDS011;16038;47.692;9.400;2024-03-22T09:54:38;10.27;;;4.95;;
28926;SDS011;16038;47.692;9.400;2024-03-22T09:57:03;10.20;;;4.05;;
28926;SDS011;16038;47.692;9.400;2024-03-22T09:59:29;10.77;;;4.72;;
28926;SDS011;16038;47.692;9.400;2024-03-22T10:01:55;10.48;;;4.72;;
28926;SDS011;16038;47.692;9.400;2024-03-22T10:04:23;8.30;;;4.72;;
28926;SDS011;16038;47.692;9.400;2024-03-22T10:06:49;26.70;;;9.38;;
28926;SDS011;16038;47.692;9.400;2024-03-22T10:09:15;24.20;;;6.93;;
28926;SDS011;16038;47.692;9.400;2024-03-22T10:11:40;15.88;;;6.10;;
28926;SDS011;16038;47.692;9.400;2024-03-22T10:14:06;17.60;;;6.40;;
28926;SDS011;16038;47.692;9.400;2024-03-22T10:16:34;7.97;;;4.18;;
28926;SDS011;16038;47.692;9.400;2024-03-22T10:19:00;12.65;;;5.85;;
28926;SDS011;16038;47.692;9.400;2024-03-22T10:21:25;10.20;;;5.38;;
28926;SDS011;16038;47.692;9.400;2024-03-22T10:23:53;8.75;;;3.90;;
28926;SDS011;16038;47.692;9.400;2024-03-22T10:26:18;9.38;;;4.40;;
28926;SDS011;16038;47.692;9.400;2024-03-22T10:28:47;9.43;;;3.80;;
28926;SDS011;16038;47.692;9.400;2024-03-22T10:31:15;5.45;;;3.80;;
28926;SDS011;16038;47.692;9.400;2024-03-22T10:33:40;9.48;;;3.80;;
28926;SDS011;16038;47.692;9.400;2024-03-22T10:36:07;7.70;;;4.13;;
28926;SDS011;16038;47.692;9.400;2024-03-22T10:38:33;10.82;;;5.63;;
28926;SDS011;16038;47.692;9.400;2024-03-22T10:41:03;10.52;;;5.10;;
28926;SDS011;16038;47.692;9.400;2024-03-22T10:43:29;9.40;;;5.20;;
28926;SDS011;16038;47.692;9.400;2024-03-22T10:45:55;8.50;;;5.28;;
28926;SDS011;16038;47.692;9.400;2024-03-22T10:48:24;8.48;;;5.00;;
28926;SDS011;16038;47.692;9.400;2024-03-22T10:53:22;7.53;;;4.88;;
28926;SDS011;16038;47.692;9.400;2024-03-22T10:55:49;10.05;;;5.43;;
28926;SDS011;16038;47.692;9.400;2024-03-22T10:58:17;9.25;;;4.63;;
28926;SDS011;16038;47.692;9.400;2024-03-22T11:00:46;8.97;;;5.03;;
28926;SDS011;16038;47.692;9.400;2024-03-22T11:03:14;10.82;;;4.40;;
28926;SDS011;16038;47.692;9.400;2024-03-22T11:05:46;14.80;;;5.45;;
28926;SDS011;16038;47.692;9.400;2024-03-22T11:08:12;8.45;;;4.95;;
28926;SDS011;16038;47.692;9.400;2024-03-22T11:10:38;9.70;;;5.32;;
28926;SDS011;16038;47.692;9.400;2024-03-22T11:13:05;8.80;;;4.38;;
28926;SDS011;16038;47.692;9.400;2024-03-22T11:15:32;7.32;;;4.47;;
28926;SDS011;16038;47.692;9.400;2024-03-22T11:17:58;8.07;;;4.53;;
28926;SDS011;16038;47.692;9.400;2024-03-22T11:20:24;9.55;;;5.15;;
28926;SDS011;16038;47.692;9.400;2024-03-22T11:22:51;8.02;;;4.72;;
28926;SDS011;16038;47.692;9.400;2024-03-22T11:25:17;12.82;;;5.22;;
28926;SDS011;16038;47.692;9.400;2024-03-22T11:27:44;9.13;;;4.80;;
28926;SDS011;16038;47.692;9.400;2024-03-22T11:30:09;10.13;;;4.97;;
28926;SDS011;16038;47.692;9.400;2024-03-22T11:32:35;6.72;;;4.05;;
28926;SDS011;16038;47.692;9.400;2024-03-22T11:35:12;5.40;;;3.50;;
28926;SDS011;16038;47.692;9.400;2024-03-22T11:37:41;7.47;;;3.88;;
28926;SDS011;16038;47.692;9.400;2024-03-22T11:40:09;7.13;;;4.30;;
28926;SDS011;16038;47.692;9.400;2024-03-22T11:42:36;7.25;;;3.78;;
28926;SDS011;16038;47.692;9.400;2024-03-22T11:45:05;7.20;;;3.80;;
28926;SDS011;16038;47.692;9.400;2024-03-22T11:47:33;6.95;;;3.80;;
28926;SDS011;16038;47.692;9.400;2024-03-22T11:49:58;6.70;;;3.17;;
28926;SDS011;16038;47.692;9.400;2024-03-22T11:52:25;7.53;;;3.03;;
28926;SDS011;16038;47.692;9.400;2024-03-22T11:54:54;7.75;;;3.70;;
28926;SDS011;16038;47.692;9.400;2024-03-22T11:57:22;6.07;;;3.08;;
28926;SDS011;16038;47.692;9.400;2024-03-22T11:59:49;5.93;;;2.80;;
28926;SDS011;16038;47.692;9.400;2024-03-22T12:02:15;4.75;;;3.08;;
28926;SDS011;16038;47.692;9.400;2024-03-22T12:04:50;8.52;;;4.28;;
28926;SDS011;16038;47.692;9.400;2024-03-22T12:07:16;10.98;;;4.38;;
28926;SDS011;16038;47.692;9.400;2024-03-22T12:09:42;6.95;;;4.35;;
28926;SDS011;16038;47.692;9.400;2024-03-22T12:12:09;7.65;;;4.60;;
28926;SDS011;16038;47.692;9.400;2024-03-22T12:14:35;8.80;;;4.75;;
28926;SDS011;16038;47.692;9.400;2024-03-22T12:17:04;9.05;;;4.47;;
28926;SDS011;16038;47.692;9.400;2024-03-22T12:19:30;8.57;;;4.47;;
28926;SDS011;16038;47.692;9.400;2024-03-22T12:21:56;9.23;;;4.13;;
28926;SDS011;16038;47.692;9.400;2024-03-22T12:24:22;7.68;;;3.88;;
28926;SDS011;16038;47.692;9.400;2024-03-22T12:26:48;9.32;;;4.45;;
28926;SDS011;16038;47.692;9.400;2024-03-22T12:29:17;10.57;;;5.35;;
28926;SDS011;16038;47.692;9.400;2024-03-22T12:31:43;7.03;;;4.57;;
28926;SDS011;16038;47.692;9.400;2024-03-22T12:34:09;11.45;;;5.55;;
28926;SDS011;16038;47.692;9.400;2024-03-22T12:36:34;8.73;;;5.22;;
28926;SDS011;16038;47.692;9.400;2024-03-22T12:39:00;12.93;;;5.97;;
28926;SDS011;16038;47.692;9.400;2024-03-22T12:41:26;7.32;;;5.07;;
28926;SDS011;16038;47.692;9.400;2024-03-22T12:43:54;10.07;;;5.13;;
28926;SDS011;16038;47.692;9.400;2024-03-22T12:46:20;8.30;;;5.05;;
28926;SDS011;16038;47.692;9.400;2024-03-22T12:48:45;10.98;;;6.55;;
28926;SDS011;16038;47.692;9.400;2024-03-22T12:51:11;8.25;;;5.10;;
28926;SDS011;16038;47.692;9.400;2024-03-22T12:53:37;11.65;;;5.60;;
28926;SDS011;16038;47.692;9.400;2024-03-22T12:56:03;7.45;;;5.15;;
28926;SDS011;16038;47.692;9.400;2024-03-22T12:58:30;7.47;;;5.00;;
28926;SDS011;16038;47.692;9.400;2024-03-22T13:00:56;8.02;;;4.50;;
28926;SDS011;16038;47.692;9.400;2024-03-22T13:03:22;7.07;;;3.90;;
28926;SDS011;16038;47.692;9.400;2024-03-22T13:05:47;7.38;;;4.47;;
28926;SDS011;16038;47.692;9.400;2024-03-22T13:08:13;10.98;;;4.50;;
28926;SDS011;16038;47.692;9.400;2024-03-22T13:10:38;10.02;;;3.90;;
28926;SDS011;16038;47.692;9.400;2024-03-22T13:13:08;8.02;;;3.85;;
28926;SDS011;16038;47.692;9.400;2024-03-22T13:15:34;12.15;;;4.05;;
28926;SDS011;16038;47.692;9.400;2024-03-22T13:18:00;7.30;;;3.83;;
28926;SDS011;16038;47.692;9.400;2024-03-22T13:20:26;11.02;;;4.88;;
28926;SDS011;16038;47.692;9.400;2024-03-22T13:22:51;6.32;;;3.85;;
28926;SDS011;16038;47.692;9.400;2024-03-22T13:25:16;6.95;;;3.40;;
28926;SDS011;16038;47.692;9.400;2024-03-22T13:27:42;6.20;;;3.78;;
28926;SDS011;16038;47.692;9.400;2024-03-22T13:30:07;7.32;;;4.43;;
28926;SDS011;16038;47.692;9.400;2024-03-22T13:32:36;10.82;;;3.33;;
28926;SDS011;16038;47.692;9.400;2024-03-22T13:35:02;4.45;;;2.80;;
28926;SDS011;16038;47.692;9.400;2024-03-22T13:37:28;6.82;;;3.28;;
28926;SDS011;16038;47.692;9.400;2024-03-22T13:39:53;7.85;;;4.05;;
28926;SDS011;16038;47.692;9.400;2024-03-22T13:42:19;5.43;;;3.22;;
28926;SDS011;16038;47.692;9.400;2024-03-22T13:44:45;5.45;;;2.50;;
28926;SDS011;16038;47.692;9.400;2024-03-22T13:47:10;6.72;;;2.45;;
28926;SDS011;16038;47.692;9.400;2024-03-22T13:49:36;6.57;;;3.25;;
28926;SDS011;16038;47.692;9.400;2024-03-22T13:52:03;6.68;;;2.75;;
28926;SDS011;16038;47.692;9.400;2024-03-22T13:54:29;7.65;;;2.80;;
28926;SDS011;16038;47.692;9.400;2024-03-22T13:56:55;3.45;;;2.30;;
28926;SDS011;16038;47.692;9.400;2024-03-22T13:59:20;5.38;;;2.53;;
28926;SDS011;16038;47.692;9.400;2024-03-22T14:01:46;6.18;;;3.20;;
28926;SDS011;16038;47.692;9.400;2024-03-22T14:04:12;4.75;;;3.17;;
28926;SDS011;16038;47.692;9.400;2024-03-22T14:06:38;6.75;;;3.35;;
28926;SDS011;16038;47.692;9.400;2024-03-22T14:09:03;4.53;;;2.60;;
28926;SDS011;16038;47.692;9.400;2024-03-22T14:11:30;4.47;;;2.90;;
28926;SDS011;16038;47.692;9.400;2024-03-22T14:13:58;6.95;;;3.67;;
28926;SDS011;16038;47.692;9.400;2024-03-22T14:16:24;6.55;;;2.30;;
28926;SDS011;16038;47.692;9.400;2024-03-22T14:18:49;9.25;;;2.65;;
28926;SDS011;16038;47.692;9.400;2024-03-22T14:21:16;6.53;;;1.75;;
28926;SDS011;16038;47.692;9.400;2024-03-22T14:23:47;6.50;;;1.92;;
28926;SDS011;16038;47.692;9.400;2024-03-22T14:26:14;6.35;;;2.50;;
28926;SDS011;16038;47.692;9.400;2024-03-22T14:28:41;5.53;;;2.60;;
28926;SDS011;16038;47.692;9.400;2024-03-22T14:31:07;4.80;;;2.38;;
28926;SDS011;16038;47.692;9.400;2024-03-22T14:33:36;5.82;;;1.88;;
28926;SDS011;16038;47.692;9.400;2024-03-22T14:36:02;5.00;;;2.53;;
28926;SDS011;16038;47.692;9.400;2024-03-22T14:38:29;3.60;;;2.40;;